Time;durP1;ratioP1;P1;durP2;ratioP2;P2;SDS_P1;SDS_P2;PMS_P1;PMS_P2;Temp;Humidity;BMP_temperature;BMP_pressure;BME280_temperature;BME280_humidity;BME280_pressure;Samples;Min_cycle;Max_cycle;Signal;HPM_P1;HPM_P2
2021/07/26 00:00:51;;;;;;;3.50;3.20;;;25.70;99.90;;;;;;4831915;29;20030;-95
2021/07/26 00:03:39;;;;;;;;;;;;;;;;;;;;;
2021/07/26 00:06:33;;;;;;;4.07;3.60;;;25.70;99.90;;;;;;4844781;29;20065;-96
2021/07/26 00:09:16;;;;;;;;;;;;;;;;;;;;;
2021/07/26 00:11:54;;;;;;;4.00;3.55;;;25.70;99.90;;;;;;4817807;29;20125;-96
2021/07/26 00:14:32;;;;;;;3.65;3.35;;;25.70;99.90;;;;;;4800966;29;20439;-96
2021/07/26 00:17:08;;;;;;;;;;;;;;;;;;;;;
2021/07/26 00:20:25;;;;;;;3.88;3.47;;;25.70;99.90;;;;;;4848066;29;20125;-95
2021/07/26 00:23:08;;;;;;;4.25;3.85;;;25.70;99.90;;;;;;4837425;29;20051;-96
2021/07/26 00:28:56;;;;;;;;;;;;;;;;;;;;;
2021/07/26 00:32:00;;;;;;;3.53;3.10;;;25.70;99.90;;;;;;4840721;29;20069;-96
2021/07/26 00:34:47;;;;;;;;;;;;;;;;;;;;;
2021/07/26 00:40:42;;;;;;;3.95;3.58;;;25.70;99.90;;;;;;4829688;29;20037;-95
2021/07/26 00:43:06;;;;;;;4.32;3.92;;;25.70;99.90;;;;;;4849390;29;20049;-95
2021/07/26 00:45:44;;;;;;;4.22;3.83;;;25.70;99.90;;;;;;4843798;29;20042;-95
2021/07/26 00:49:07;;;;;;;4.00;3.65;;;25.70;99.90;;;;;;4814416;29;20074;-96
2021/07/26 00:51:46;;;;;;;4.80;4.30;;;25.70;99.90;;;;;;4843772;29;20124;-96
2021/07/26 00:54:42;;;;;;;4.40;3.95;;;25.70;99.90;;;;;;4833455;29;20076;-96
2021/07/26 00:57:42;;;;;;;;;;;;;;;;;;;;;
2021/07/26 01:00:58;;;;;;;;;;;;;;;;;;;;;
2021/07/26 01:03:24;;;;;;;4.95;4.20;;;25.70;99.90;;;;;;4842586;29;20034;-93
2021/07/26 01:05:55;;;;;;;4.88;4.28;;;25.70;99.90;;;;;;4829413;29;20450;-95
2021/07/26 01:08:21;;;;;;;4.90;4.40;;;25.70;99.90;;;;;;4843504;29;20061;-94
2021/07/26 01:10:47;;;;;;;5.43;4.85;;;25.70;99.90;;;;;;4826741;29;20061;-93
2021/07/26 01:13:16;;;;;;;4.93;4.43;;;25.70;99.90;;;;;;4826736;29;20046;-94
2021/07/26 01:15:41;;;;;;;4.78;4.28;;;25.70;99.90;;;;;;4826749;29;20070;-95
2021/07/26 01:18:26;;;;;;;5.68;4.68;;;25.70;99.90;;;;;;4830857;29;20038;-94
2021/07/26 01:21:03;;;;;;;5.00;4.50;;;25.70;99.90;;;;;;4827722;29;20041;-95
2021/07/26 01:23:33;;;;;;;4.82;4.32;;;25.70;99.90;;;;;;4814927;29;20171;-94
2021/07/26 01:26:00;;;;;;;5.22;4.72;;;25.70;99.90;;;;;;4826809;29;20401;-95
2021/07/26 01:28:29;;;;;;;4.95;4.50;;;25.70;99.90;;;;;;4812651;29;20042;-96
2021/07/26 01:30:56;;;;;;;5.78;4.95;;;25.70;99.90;;;;;;4843084;29;20034;-95
2021/07/26 01:33:22;;;;;;;5.47;4.93;;;25.70;99.90;;;;;;4827120;29;20037;-95
2021/07/26 01:35:52;;;;;;;5.80;5.07;;;25.70;99.90;;;;;;4827125;29;20030;-94
2021/07/26 01:38:21;;;;;;;5.63;5.03;;;25.70;99.90;;;;;;4830909;29;20046;-95
2021/07/26 01:40:53;;;;;;;5.88;5.05;;;25.70;99.90;;;;;;4829865;29;20044;-96
2021/07/26 01:43:25;;;;;;;5.43;4.85;;;25.70;99.90;;;;;;4848405;29;20029;-95
2021/07/26 01:46:15;;;;;;;5.82;5.20;;;25.70;99.90;;;;;;4831392;29;20030;-94
2021/07/26 01:48:52;;;;;;;5.55;4.80;;;25.70;99.90;;;;;;4846952;29;20038;-95
2021/07/26 01:51:40;;;;;;;5.78;4.82;;;25.70;99.90;;;;;;4831355;29;20065;-95
2021/07/26 01:54:07;;;;;;;5.53;4.72;;;25.70;99.90;;;;;;4829432;29;20033;-94
2021/07/26 01:56:40;;;;;;;5.22;4.68;;;25.60;99.90;;;;;;4829554;29;20064;-96
2021/07/26 01:59:07;;;;;;;5.32;4.82;;;25.60;99.90;;;;;;4831018;29;20038;-95
2021/07/26 02:01:33;;;;;;;5.45;4.95;;;25.70;99.90;;;;;;4829600;29;20034;-96
2021/07/26 02:03:58;;;;;;;6.20;5.40;;;25.70;99.90;;;;;;4845798;29;20030;-96
2021/07/26 02:06:44;;;;;;;6.15;5.55;;;25.70;99.90;;;;;;4831167;29;20037;-96
2021/07/26 02:09:12;;;;;;;6.63;5.93;;;25.70;99.90;;;;;;4829389;29;20253;-95
2021/07/26 02:11:47;;;;;;;6.95;5.97;;;25.60;99.90;;;;;;4829606;29;20102;-96
2021/07/26 02:14:15;;;;;;;6.75;6.05;;;25.70;99.90;;;;;;4830894;29;20025;-95
2021/07/26 02:16:42;;;;;;;6.10;5.50;;;25.70;99.90;;;;;;4829494;29;20102;-94
2021/07/26 02:19:11;;;;;;;5.60;5.10;;;25.70;99.90;;;;;;4830539;29;20056;-95
2021/07/26 02:21:44;;;;;;;6.40;5.70;;;25.70;99.90;;;;;;4846150;29;20091;-96
2021/07/26 02:24:12;;;;;;;7.38;6.57;;;25.70;99.90;;;;;;4829501;29;20069;-95
2021/07/26 02:26:42;;;;;;;6.72;6.03;;;25.70;99.90;;;;;;4845641;29;20034;-95
2021/07/26 02:29:10;;;;;;;7.03;5.95;;;25.70;99.90;;;;;;4845731;29;20034;-96
2021/07/26 02:31:40;;;;;;;7.00;6.18;;;25.70;99.90;;;;;;4848204;29;20094;-96
2021/07/26 02:34:17;;;;;;;6.78;5.57;;;25.60;99.90;;;;;;4837945;29;20041;-94
2021/07/26 02:36:46;;;;;;;6.57;5.80;;;25.70;99.90;;;;;;4851015;29;20046;-96
2021/07/26 02:39:14;;;;;;;6.70;5.78;;;25.60;99.90;;;;;;4866496;29;20034;-96
2021/07/26 02:41:58;;;;;;;6.50;5.72;;;25.70;99.90;;;;;;4835911;29;20014;-95
2021/07/26 02:44:26;;;;;;;6.55;5.82;;;25.70;99.90;;;;;;4846968;29;20045;-96
2021/07/26 02:46:56;;;;;;;6.53;5.82;;;25.60;99.90;;;;;;4835986;29;20061;-96
2021/07/26 02:49:25;;;;;;;6.40;5.80;;;25.60;99.90;;;;;;4834324;29;20045;-96
2021/07/26 02:51:53;;;;;;;6.88;5.90;;;25.70;99.90;;;;;;4832071;29;20506;-96
2021/07/26 02:54:19;;;;;;;5.57;5.07;;;25.60;99.90;;;;;;4824868;29;20049;-95
2021/07/26 02:56:47;;;;;;;5.70;5.20;;;25.70;99.90;;;;;;4857924;29;20054;-94
2021/07/26 02:59:12;;;;;;;6.15;5.43;;;25.70;99.90;;;;;;4852608;29;20414;-94
2021/07/26 03:01:41;;;;;;;7.15;5.30;;;25.60;99.90;;;;;;4836102;29;20026;-95
2021/07/26 03:04:10;;;;;;;5.38;4.85;;;25.60;99.90;;;;;;4845990;29;20477;-94
2021/07/26 03:06:36;;;;;;;5.97;4.78;;;25.60;99.90;;;;;;4828408;29;20026;-94
2021/07/26 03:09:05;;;;;;;6.43;5.35;;;25.60;99.90;;;;;;4828413;29;20037;-94
2021/07/26 03:11:46;;;;;;;;;;;;;;;;;;;;;
2021/07/26 03:14:14;;;;;;;5.40;4.90;;;25.60;99.90;;;;;;4844738;29;20041;-95
2021/07/26 03:16:40;;;;;;;5.50;4.93;;;25.60;99.90;;;;;;4813854;29;20034;-95
2021/07/26 03:19:06;;;;;;;5.10;4.60;;;25.60;99.90;;;;;;4845365;29;20433;-94
2021/07/26 03:21:32;;;;;;;5.78;5.18;;;25.60;99.90;;;;;;4849146;29;20030;-95
2021/07/26 03:24:00;;;;;;;5.15;4.50;;;25.60;99.90;;;;;;4835868;29;20057;-95
2021/07/26 03:26:28;;;;;;;5.28;4.78;;;25.60;99.90;;;;;;4845827;29;20041;-95
2021/07/26 03:28:54;;;;;;;5.65;5.05;;;25.60;99.90;;;;;;4843641;29;20033;-95
2021/07/26 03:31:20;;;;;;;5.38;4.88;;;25.60;99.90;;;;;;4827802;29;20049;-95
2021/07/26 03:33:48;;;;;;;4.90;4.40;;;25.60;99.90;;;;;;4827312;29;20450;-94
2021/07/26 03:36:16;;;;;;;5.53;4.78;;;25.60;99.90;;;;;;4816901;29;20045;-94
2021/07/26 03:38:43;;;;;;;4.82;4.15;;;25.60;99.90;;;;;;4843516;29;20049;-94
2021/07/26 03:41:09;;;;;;;4.65;4.25;;;25.60;99.90;;;;;;4827100;29;20038;-94
2021/07/26 03:43:34;;;;;;;5.00;4.22;;;25.60;99.90;;;;;;4829786;29;20049;-93
2021/07/26 03:46:00;;;;;;;4.63;4.03;;;25.60;99.90;;;;;;4845491;29;20034;-93
2021/07/26 03:48:26;;;;;;;5.00;4.50;;;25.60;99.90;;;;;;4827485;29;20114;-94
2021/07/26 03:50:54;;;;;;;5.07;4.47;;;25.60;99.90;;;;;;4828555;29;20141;-94
2021/07/26 03:53:22;;;;;;;4.93;4.20;;;25.60;99.90;;;;;;4827391;29;20070;-94
2021/07/26 03:55:48;;;;;;;4.82;4.30;;;25.60;99.90;;;;;;4828293;29;20098;-94
2021/07/26 03:58:14;;;;;;;5.05;4.13;;;25.60;99.90;;;;;;4837115;29;20488;-94
2021/07/26 04:00:41;;;;;;;5.03;4.53;;;25.60;99.90;;;;;;4836074;29;20029;-93
2021/07/26 04:06:00;;;;;;;5.60;4.85;;;25.60;99.90;;;;;;4833519;29;20538;-94
2021/07/26 04:08:29;;;;;;;5.00;4.47;;;25.60;99.90;;;;;;4831388;29;20057;-95
2021/07/26 04:11:09;;;;;;;4.55;4.15;;;25.50;99.90;;;;;;4797948;29;20046;-93
2021/07/26 04:13:37;;;;;;;4.43;3.92;;;25.60;99.90;;;;;;4844296;29;20472;-91
2021/07/26 04:16:03;;;;;;;5.03;4.47;;;25.60;99.90;;;;;;4827419;29;20030;-93
2021/07/26 04:18:29;;;;;;;5.50;4.90;;;25.60;99.90;;;;;;4830782;29;20046;-92
2021/07/26 04:20:58;;;;;;;5.25;4.75;;;25.50;99.90;;;;;;4827111;29;20041;-94
2021/07/26 04:23:23;;;;;;;5.53;4.60;;;25.60;99.90;;;;;;4827063;29;20502;-94
2021/07/26 04:25:50;;;;;;;5.50;4.45;;;25.60;99.90;;;;;;4826991;29;20069;-95
2021/07/26 04:28:17;;;;;;;4.80;4.30;;;25.60;99.90;;;;;;4826815;29;20061;-94
2021/07/26 04:30:45;;;;;;;4.65;4.25;;;25.60;99.90;;;;;;4812119;29;20038;-96
2021/07/26 04:33:11;;;;;;;4.43;4.03;;;25.60;99.90;;;;;;4826891;29;20030;-94
2021/07/26 04:35:37;;;;;;;4.72;4.22;;;25.60;99.90;;;;;;4826803;29;20060;-95
2021/07/26 04:38:03;;;;;;;5.10;4.60;;;25.60;99.90;;;;;;4811334;29;20052;-95
2021/07/26 04:40:38;;;;;;;4.70;4.30;;;25.50;99.90;;;;;;4833750;29;20041;-94
2021/07/26 04:43:03;;;;;;;4.80;4.22;;;25.60;99.90;;;;;;4846416;29;20037;-95
2021/07/26 04:45:29;;;;;;;4.65;4.07;;;25.50;99.90;;;;;;4826728;29;20022;-94
2021/07/26 04:47:55;;;;;;;4.82;4.20;;;25.50;99.90;;;;;;4826702;29;20040;-96
2021/07/26 04:50:30;;;;;;;4.95;4.38;;;25.60;99.90;;;;;;4828771;29;20022;-96
2021/07/26 04:53:06;;;;;;;;;;;;;;;;;;;;;
2021/07/26 04:55:32;;;;;;;4.70;4.20;;;25.60;99.90;;;;;;4843843;29;20060;-92
2021/07/26 04:58:04;;;;;;;4.75;4.25;;;25.50;99.90;;;;;;4828053;29;20109;-93
2021/07/26 05:00:37;;;;;;;4.47;3.90;;;25.60;99.90;;;;;;4855360;29;20072;-92
2021/07/26 05:03:40;;;;;;;4.55;4.10;;;25.50;99.90;;;;;;4830457;29;20049;-92
2021/07/26 05:06:18;;;;;;;4.85;3.95;;;25.60;99.90;;;;;;4826403;29;20026;-92
2021/07/26 05:08:47;;;;;;;4.85;4.32;;;25.60;99.90;;;;;;4812962;29;20133;-93
2021/07/26 05:11:12;;;;;;;5.28;4.60;;;25.60;99.90;;;;;;4827431;29;20361;-93
2021/07/26 05:13:51;;;;;;;;;;;;;;;;;;;;;
2021/07/26 05:16:17;;;;;;;4.43;3.95;;;25.60;99.90;;;;;;4846230;29;20042;-94
2021/07/26 05:18:55;;;;;;;4.40;4.00;;;25.60;99.90;;;;;;4846819;29;20130;-93
2021/07/26 05:21:24;;;;;;;4.05;3.65;;;25.60;99.90;;;;;;4830070;29;20469;-94
2021/07/26 05:23:53;;;;;;;4.32;3.92;;;25.60;99.90;;;;;;4833565;29;20030;-92
2021/07/26 05:26:21;;;;;;;4.07;3.67;;;25.60;99.90;;;;;;4829166;29;20034;-93
2021/07/26 05:28:47;;;;;;;4.20;3.80;;;25.60;99.90;;;;;;4829426;29;20561;-93
2021/07/26 05:31:16;;;;;;;4.68;4.22;;;25.60;99.90;;;;;;4829548;29;20069;-93
2021/07/26 05:33:51;;;;;;;;;;;;;;;;;;;;;
2021/07/26 05:36:23;;;;;;;3.50;3.20;;;25.60;99.90;;;;;;4846056;29;20036;-94
2021/07/26 05:39:00;;;;;;;;;;;;;;;;;;;;;
2021/07/26 05:41:26;;;;;;;3.22;2.92;;;25.60;99.90;;;;;;4850220;29;20125;-93
2021/07/26 05:43:52;;;;;;;3.05;2.75;;;25.60;99.90;;;;;;4831156;29;20552;-93
2021/07/26 05:46:22;;;;;;;2.53;2.33;;;25.60;99.90;;;;;;4829394;29;20036;-93
2021/07/26 05:48:58;;;;;;;3.25;2.95;;;25.60;99.90;;;;;;4829850;29;20129;-93
2021/07/26 05:51:24;;;;;;;3.00;2.63;;;25.60;99.90;;;;;;4829321;29;20026;-93
2021/07/26 05:53:50;;;;;;;2.65;2.40;;;25.60;99.90;;;;;;4845653;29;20070;-93
2021/07/26 05:56:16;;;;;;;2.72;2.53;;;25.60;99.90;;;;;;4829586;29;20054;-93
2021/07/26 05:58:44;;;;;;;3.00;2.70;;;25.60;99.90;;;;;;4850841;29;20101;-93
2021/07/26 06:01:56;;;;;;;2.78;2.53;;;25.60;99.90;;;;;;4841669;29;20022;-93
2021/07/26 06:03:56;;;;;;;2.55;2.28;;;25.60;99.90;;;;;;4860855;29;20030;-91
2021/07/26 06:06:25;;;;;;;2.58;2.38;;;25.60;99.90;;;;;;4847802;29;20037;-92
2021/07/26 06:08:50;;;;;;;2.25;2.00;;;25.60;99.90;;;;;;4836810;29;20050;-92
2021/07/26 06:11:19;;;;;;;1.77;1.67;;;25.60;99.90;;;;;;4835681;29;20025;-94
2021/07/26 06:13:47;;;;;;;2.35;2.15;;;25.60;99.90;;;;;;4816479;29;20038;-93
2021/07/26 06:16:18;;;;;;;2.00;1.80;;;25.60;99.90;;;;;;4830396;29;20037;-92
2021/07/26 06:18:44;;;;;;;2.40;2.10;;;25.60;99.90;;;;;;4830890;29;20038;-92
2021/07/26 06:21:10;;;;;;;2.50;2.10;;;25.60;99.90;;;;;;4846346;29;20040;-93
2021/07/26 06:23:38;;;;;;;2.15;1.95;;;25.60;99.90;;;;;;4845867;29;20444;-94
2021/07/26 06:26:05;;;;;;;2.03;1.77;;;25.60;99.90;;;;;;4842022;29;20050;-93
2021/07/26 06:28:43;;;;;;;;;;;;;;;;;;;;;
2021/07/26 06:31:12;;;;;;;2.33;1.92;;;25.60;99.90;;;;;;4846843;29;20034;-94
2021/07/26 06:33:38;;;;;;;1.95;1.73;;;25.60;99.90;;;;;;4848300;29;20118;-94
2021/07/26 06:36:09;;;;;;;1.85;1.75;;;25.60;99.90;;;;;;4839519;29;20037;-93
2021/07/26 06:38:37;;;;;;;1.90;1.70;;;25.60;99.90;;;;;;4844148;29;20038;-94
2021/07/26 06:41:03;;;;;;;2.13;1.88;;;25.60;99.90;;;;;;4836207;29;20051;-92
2021/07/26 06:43:31;;;;;;;1.95;1.75;;;25.60;99.90;;;;;;4834579;29;20473;-92
2021/07/26 06:46:03;;;;;;;2.10;1.90;;;25.60;99.90;;;;;;4847942;29;20073;-92
2021/07/26 06:48:33;;;;;;;2.05;1.80;;;25.60;99.90;;;;;;4829027;29;20060;-93
2021/07/26 06:51:03;;;;;;;2.05;1.90;;;25.60;99.90;;;;;;4829668;29;20037;-93
2021/07/26 06:53:39;;;;;;;1.70;1.60;;;25.60;99.90;;;;;;4844703;29;20120;-92
2021/07/26 06:56:06;;;;;;;1.55;1.42;;;25.60;99.90;;;;;;4828467;29;20054;-92
2021/07/26 06:58:37;;;;;;;1.83;1.70;;;25.60;99.90;;;;;;4844327;29;20086;-89
2021/07/26 07:01:09;;;;;;;1.95;1.80;;;25.70;99.90;;;;;;4846859;29;20083;-90
2021/07/26 07:04:06;;;;;;;1.63;1.52;;;25.70;99.90;;;;;;4813438;29;20038;-92
2021/07/26 07:06:32;;;;;;;2.20;2.00;;;25.70;99.90;;;;;;4836373;29;20045;-90
2021/07/26 07:09:03;;;;;;;2.30;2.10;;;25.70;99.90;;;;;;4827376;29;20033;-90
2021/07/26 07:11:28;;;;;;;4.03;2.15;;;25.70;99.90;;;;;;4814222;29;20026;-89
2021/07/26 07:13:56;;;;;;;2.50;2.30;;;25.70;99.90;;;;;;4832487;29;20401;-90
2021/07/26 07:16:25;;;;;;;2.33;1.98;;;25.80;99.90;;;;;;4827066;29;20084;-90
2021/07/26 07:18:57;;;;;;;2.53;2.30;;;25.80;99.90;;;;;;4826843;29;20038;-90
2021/07/26 07:21:31;;;;;;;2.50;2.15;;;25.80;99.90;;;;;;4826504;29;20077;-92
2021/07/26 07:24:05;;;;;;;2.53;2.33;;;25.80;99.90;;;;;;4826799;29;20038;-89
2021/07/26 07:26:35;;;;;;;2.53;2.33;;;25.80;99.90;;;;;;4826609;29;20485;-89
2021/07/26 07:29:01;;;;;;;2.78;2.47;;;25.80;99.90;;;;;;4826585;29;20477;-90
2021/07/26 07:31:39;;;;;;;2.55;2.30;;;25.80;99.90;;;;;;4826765;29;20053;-88
2021/07/26 07:34:05;;;;;;;3.15;2.30;;;25.80;99.90;;;;;;4826484;29;20171;-89
2021/07/26 07:36:34;;;;;;;3.03;2.58;;;25.80;99.90;;;;;;4842657;29;20041;-89
2021/07/26 07:39:02;;;;;;;3.83;2.40;;;25.80;99.90;;;;;;4829776;29;20136;-90
2021/07/26 07:41:34;;;;;;;2.58;2.28;;;25.80;99.90;;;;;;4842933;29;20030;-91
2021/07/26 07:44:00;;;;;;;2.65;2.35;;;25.80;99.90;;;;;;4826882;29;20034;-90
2021/07/26 07:46:25;;;;;;;2.15;1.95;;;25.80;99.90;;;;;;4826282;29;20087;-90
2021/07/26 07:48:54;;;;;;;2.47;2.10;;;25.80;99.90;;;;;;4842885;29;20548;-91
2021/07/26 07:51:26;;;;;;;2.13;1.92;;;25.80;99.90;;;;;;4828036;29;20040;-90
2021/07/26 07:53:53;;;;;;;2.75;2.22;;;25.80;99.90;;;;;;4813110;29;20076;-91
2021/07/26 07:56:42;;;;;;;2.22;2.03;;;25.80;99.90;;;;;;4827643;29;20049;-91
2021/07/26 07:59:16;;;;;;;2.15;1.90;;;25.80;99.90;;;;;;4828044;29;20042;-90
2021/07/26 08:01:50;;;;;;;1.77;1.67;;;25.80;99.90;;;;;;4827416;29;20033;-91
2021/07/26 08:04:39;;;;;;;1.85;1.75;;;25.80;99.90;;;;;;4828018;29;20030;-91
2021/07/26 08:10:23;;;;;;;1.98;1.80;;;25.70;99.90;;;;;;4828997;29;20045;-91
2021/07/26 08:12:52;;;;;;;1.70;1.60;;;25.80;99.90;;;;;;4834790;29;20033;-90
2021/07/26 08:15:38;;;;;;;1.95;1.85;;;25.80;99.90;;;;;;4843602;29;20081;-90
2021/07/26 08:18:04;;;;;;;1.77;1.67;;;25.80;99.90;;;;;;4815905;29;20080;-90
2021/07/26 08:20:55;;;;;;;1.83;1.73;;;25.70;99.90;;;;;;4826746;29;20053;-91
2021/07/26 08:23:31;;;;;;;;;;;;;;;;;;;;;
2021/07/26 08:25:59;;;;;;;1.90;1.73;;;25.80;99.90;;;;;;4842605;29;20044;-89
2021/07/26 08:31:54;;;;;;;1.80;1.60;;;25.80;99.90;;;;;;4840861;29;20481;-90
2021/07/26 08:34:19;;;;;;;2.13;1.92;;;25.80;99.90;;;;;;4830914;29;20120;-91
2021/07/26 08:36:48;;;;;;;1.77;1.65;;;25.70;99.90;;;;;;4826086;29;20495;-91
2021/07/26 08:39:28;;;;;;;2.10;1.90;;;25.80;99.90;;;;;;4811944;29;20133;-92
2021/07/26 08:41:57;;;;;;;2.00;1.80;;;25.80;99.90;;;;;;4811972;29;20461;-90
2021/07/26 08:44:33;;;;;;;;;;;;;;;;;;;;;
2021/07/26 08:47:05;;;;;;;2.22;2.03;;;25.80;99.90;;;;;;4842387;29;20030;-90
2021/07/26 08:49:41;;;;;;;2.40;2.20;;;25.80;99.90;;;;;;4829791;29;20034;-90
2021/07/26 08:52:10;;;;;;;2.53;2.33;;;25.80;99.90;;;;;;4828775;29;20038;-91
2021/07/26 08:54:43;;;;;;;2.40;2.20;;;25.80;99.90;;;;;;4828651;29;20030;-89
2021/07/26 08:57:17;;;;;;;2.40;2.20;;;25.80;99.90;;;;;;4829909;29;20561;-90
2021/07/26 08:59:45;;;;;;;2.42;2.22;;;25.80;99.90;;;;;;4849019;29;20080;-90
2021/07/26 09:02:11;;;;;;;2.50;2.25;;;25.80;99.90;;;;;;4829521;29;20038;-90
2021/07/26 09:04:39;;;;;;;2.40;2.20;;;25.80;99.90;;;;;;4829176;29;20120;-90
2021/07/26 09:07:08;;;;;;;2.38;2.17;;;25.80;99.90;;;;;;4829105;29;20038;-90
2021/07/26 09:09:53;;;;;;;2.47;2.28;;;25.80;99.90;;;;;;4816624;29;20413;-90
2021/07/26 09:13:07;;;;;;;2.38;2.17;;;25.80;99.90;;;;;;4830422;29;20038;-90
2021/07/26 09:15:46;;;;;;;2.25;2.10;;;25.90;99.90;;;;;;4809398;29;20426;-91
2021/07/26 09:18:36;;;;;;;2.75;2.55;;;25.80;99.90;;;;;;4816468;29;20144;-91
2021/07/26 09:21:11;;;;;;;2.20;2.00;;;25.90;99.90;;;;;;4835249;29;20049;-91
2021/07/26 09:24:00;;;;;;;2.28;2.08;;;25.90;99.90;;;;;;4844683;29;20085;-91
2021/07/26 09:26:45;;;;;;;2.60;2.40;;;25.90;99.90;;;;;;4845896;29;20037;-91
2021/07/26 09:29:26;;;;;;;2.47;2.28;;;25.90;99.90;;;;;;4828932;29;20034;-90
2021/07/26 09:32:18;;;;;;;2.63;2.42;;;25.90;99.90;;;;;;4862804;29;20034;-90
2021/07/26 09:34:46;;;;;;;2.70;2.50;;;25.90;99.90;;;;;;4819498;29;20075;-90
2021/07/26 09:37:29;;;;;;;2.60;2.40;;;25.90;99.90;;;;;;4833291;29;20030;-90
2021/07/26 09:40:44;;;;;;;2.65;2.45;;;25.90;99.90;;;;;;4828554;29;20041;-91
2021/07/26 09:43:19;;;;;;;2.67;2.47;;;25.90;99.90;;;;;;4849291;29;20109;-90
2021/07/26 09:45:56;;;;;;;2.78;2.58;;;25.80;99.90;;;;;;4830605;29;20030;-90
2021/07/26 09:48:26;;;;;;;3.20;2.90;;;25.90;99.90;;;;;;4848339;29;20057;-89
2021/07/26 09:50:54;;;;;;;3.22;2.92;;;25.90;99.90;;;;;;4837584;29;20465;-89
2021/07/26 09:53:32;;;;;;;2.70;2.50;;;25.90;99.90;;;;;;4843831;29;20045;-91
2021/07/26 09:56:18;;;;;;;2.80;2.60;;;25.90;99.90;;;;;;4836201;29;20054;-89
2021/07/26 09:58:48;;;;;;;3.28;2.97;;;25.90;99.90;;;;;;4799251;29;20066;-90
2021/07/26 10:01:15;;;;;;;3.08;2.85;;;25.90;99.90;;;;;;4814678;29;20129;-90
2021/07/26 10:06:31;;;;;;;2.83;2.63;;;25.90;99.90;;;;;;4832847;29;20057;-90
2021/07/26 10:09:17;;;;;;;;;;;;;;;;;;;;;
2021/07/26 10:11:49;;;;;;;2.70;2.50;;;25.90;99.90;;;;;;4844307;29;20034;-89
2021/07/26 10:14:22;;;;;;;3.30;3.00;;;25.90;99.90;;;;;;4845377;29;20118;-90
2021/07/26 10:16:55;;;;;;;2.78;2.58;;;25.90;99.90;;;;;;4813243;29;20473;-90
2021/07/26 10:19:23;;;;;;;3.20;3.00;;;25.90;99.90;;;;;;4846043;29;20042;-89
2021/07/26 10:22:06;;;;;;;;;;;;;;;;;;;;;
2021/07/26 10:24:46;;;;;;;2.90;2.70;;;25.90;99.90;;;;;;4846311;29;20032;-90
2021/07/26 10:27:17;;;;;;;2.92;2.72;;;25.90;99.90;;;;;;4828723;29;20026;-90
2021/07/26 10:29:53;;;;;;;2.75;2.55;;;25.90;99.90;;;;;;4827127;29;20121;-90
2021/07/26 10:32:37;;;;;;;2.70;2.50;;;25.90;99.90;;;;;;4810079;29;20034;-90
2021/07/26 10:35:14;;;;;;;2.70;2.50;;;25.90;99.90;;;;;;4826317;29;20053;-89
2021/07/26 10:37:52;;;;;;;2.45;2.25;;;25.90;99.90;;;;;;4816973;29;20038;-92
2021/07/26 10:40:28;;;;;;;2.33;2.20;;;25.90;99.90;;;;;;4827981;29;20085;-90
2021/07/26 10:42:58;;;;;;;3.08;2.78;;;26.00;99.90;;;;;;4843592;29;20026;-89
2021/07/26 10:45:36;;;;;;;2.40;2.20;;;25.90;99.90;;;;;;4829135;29;20034;-91
2021/07/26 10:48:30;;;;;;;2.35;2.15;;;26.00;99.90;;;;;;4844237;29;20030;-92
2021/07/26 10:51:00;;;;;;;2.40;2.20;;;25.90;99.90;;;;;;4826470;29;20030;-92
2021/07/26 10:53:37;;;;;;;2.28;2.08;;;25.90;99.90;;;;;;4831776;29;20045;-91
2021/07/26 10:56:16;;;;;;;2.35;2.15;;;25.90;99.90;;;;;;4826860;29;20065;-91
2021/07/26 10:59:02;;;;;;;2.60;2.40;;;25.90;99.90;;;;;;4827244;29;20090;-90
2021/07/26 11:01:30;;;;;;;2.60;2.40;;;26.00;99.90;;;;;;4827607;29;20048;-91
2021/07/26 11:04:02;;;;;;;2.55;2.35;;;25.90;99.90;;;;;;4830527;29;20066;-90
2021/07/26 11:06:47;;;;;;;1.80;1.70;;;25.90;99.90;;;;;;4843629;29;20030;-92
2021/07/26 11:09:23;;;;;;;2.65;2.13;;;25.90;99.90;;;;;;4827060;29;20034;-91
2021/07/26 11:11:51;;;;;;;2.25;2.05;;;26.00;99.90;;;;;;4829956;29;20037;-90
2021/07/26 11:14:22;;;;;;;2.53;2.33;;;26.00;99.90;;;;;;4825242;29;20034;-92
2021/07/26 11:17:11;;;;;;;2.30;2.10;;;26.00;99.90;;;;;;4827151;29;20160;-92
2021/07/26 11:19:54;;;;;;;;;;;;;;;;;;;;;
2021/07/26 11:22:31;;;;;;;2.53;2.33;;;26.20;99.90;;;;;;4842881;29;20026;-92
2021/07/26 11:25:13;;;;;;;2.30;2.10;;;26.20;99.90;;;;;;4827083;29;20030;-93
2021/07/26 11:27:49;;;;;;;2.42;2.22;;;26.20;99.90;;;;;;4827686;29;20034;-93
2021/07/26 11:30:20;;;;;;;2.65;2.45;;;26.20;99.90;;;;;;4828814;29;20044;-93
2021/07/26 11:32:52;;;;;;;2.42;2.22;;;26.20;99.90;;;;;;4831276;29;20162;-93
2021/07/26 11:35:19;;;;;;;2.70;2.20;;;26.20;99.90;;;;;;4831906;29;20094;-91
2021/07/26 11:38:06;;;;;;;2.78;2.58;;;26.30;99.90;;;;;;4812396;29;20158;-93
2021/07/26 11:40:32;;;;;;;2.75;2.47;;;26.30;99.90;;;;;;4826943;29;20132;-90
2021/07/26 11:42:58;;;;;;;3.22;2.78;;;26.30;99.90;;;;;;4842716;29;20033;-88
2021/07/26 11:45:25;;;;;;;3.00;2.70;;;26.30;99.90;;;;;;4842972;29;20030;-92
2021/07/26 11:47:56;;;;;;;3.00;2.75;;;26.30;99.90;;;;;;4828386;29;20030;-90
2021/07/26 11:50:38;;;;;;;3.55;3.25;;;26.30;99.90;;;;;;4826540;29;20034;-91
2021/07/26 11:53:04;;;;;;;3.80;3.38;;;26.30;99.90;;;;;;4826424;29;20030;-89
2021/07/26 11:55:32;;;;;;;3.53;3.22;;;26.30;99.90;;;;;;4825917;29;20424;-88
2021/07/26 11:58:02;;;;;;;3.88;3.50;;;26.30;99.90;;;;;;4825767;29;20034;-87
2021/07/26 12:00:33;;;;;;;4.28;3.88;;;26.30;99.90;;;;;;4841943;29;20038;-87
2021/07/26 12:03:02;;;;;;;3.65;3.35;;;26.30;99.90;;;;;;4841737;29;20501;-89
2021/07/26 12:05:30;;;;;;;3.80;3.50;;;26.30;99.90;;;;;;4826467;29;20122;-88
2021/07/26 12:07:59;;;;;;;3.65;3.33;;;26.30;99.90;;;;;;4849968;29;20022;-88
2021/07/26 12:10:36;;;;;;;3.60;3.30;;;26.40;99.90;;;;;;4860785;29;20030;-88
2021/07/26 12:13:12;;;;;;;3.60;3.30;;;26.40;99.90;;;;;;4834885;29;20162;-89
2021/07/26 12:15:42;;;;;;;2.83;2.63;;;26.40;99.90;;;;;;4826410;29;20070;-88
2021/07/26 12:18:18;;;;;;;3.38;2.97;;;26.30;99.90;;;;;;4825518;29;20173;-88
2021/07/26 12:20:50;;;;;;;2.78;2.58;;;26.30;99.90;;;;;;4825344;29;20042;-89
2021/07/26 12:23:23;;;;;;;2.58;2.38;;;26.30;99.90;;;;;;4841572;29;20030;-88
2021/07/26 12:25:53;;;;;;;3.45;3.15;;;26.30;99.90;;;;;;4842018;29;20029;-92
2021/07/26 12:28:41;;;;;;;3.20;2.90;;;26.30;99.90;;;;;;4825605;29;20349;-92
2021/07/26 12:31:35;;;;;;;3.25;2.90;;;26.30;99.90;;;;;;4826465;29;20037;-94
2021/07/26 12:34:21;;;;;;;3.72;3.40;;;26.40;99.90;;;;;;4827265;29;20093;-94
2021/07/26 12:36:52;;;;;;;3.17;2.88;;;26.40;99.90;;;;;;4844658;29;20038;-94
2021/07/26 12:39:27;;;;;;;3.50;3.20;;;26.30;99.90;;;;;;4828478;29;20086;-94
2021/07/26 12:41:53;;;;;;;3.40;3.10;;;26.30;99.90;;;;;;4838142;29;20113;-93
2021/07/26 12:44:34;;;;;;;3.28;2.97;;;26.40;99.90;;;;;;4864330;29;20033;-93
2021/07/26 12:47:22;;;;;;;3.22;2.97;;;26.30;99.90;;;;;;4847340;29;20105;-91
2021/07/26 12:49:58;;;;;;;2.80;2.60;;;26.30;99.90;;;;;;4847931;29;20038;-92
2021/07/26 12:52:26;;;;;;;3.30;2.88;;;26.30;99.90;;;;;;4839191;29;20030;-94
2021/07/26 12:55:17;;;;;;;2.53;2.33;;;26.30;99.90;;;;;;4831380;29;20045;-93
2021/07/26 12:57:40;;;;;;;2.70;2.50;;;26.30;99.90;;;;;;4827642;29;20046;-91
2021/07/26 13:00:09;;;;;;;2.90;2.70;;;26.30;99.90;;;;;;4825084;29;20408;-93
2021/07/26 13:02:35;;;;;;;3.17;2.88;;;26.30;99.90;;;;;;4843236;29;20038;-92
2021/07/26 13:05:08;;;;;;;3.30;3.00;;;26.30;99.90;;;;;;4826161;29;20041;-96
2021/07/26 13:07:34;;;;;;;4.05;3.75;;;26.30;99.90;;;;;;4830919;29;20041;-95
2021/07/26 13:09:59;;;;;;;3.63;3.33;;;26.30;99.90;;;;;;4828179;29;20038;-92
2021/07/26 13:12:28;;;;;;;3.60;3.30;;;26.40;99.90;;;;;;4832660;29;20362;-93
2021/07/26 13:14:54;;;;;;;3.97;3.58;;;26.30;99.90;;;;;;4835095;29;20473;-90
2021/07/26 13:17:19;;;;;;;3.53;3.20;;;26.40;99.90;;;;;;4845046;29;20030;-89
2021/07/26 13:19:45;;;;;;;3.40;3.10;;;26.40;99.90;;;;;;4829339;29;20067;-94
2021/07/26 13:22:11;;;;;;;4.78;4.28;;;26.40;99.90;;;;;;4826994;29;20038;-93
2021/07/26 13:24:36;;;;;;;4.50;4.10;;;26.30;99.90;;;;;;4826612;29;20121;-94
2021/07/26 13:27:02;;;;;;;3.60;3.30;;;26.40;99.90;;;;;;4796119;29;20452;-92
2021/07/26 13:29:33;;;;;;;4.45;4.05;;;26.40;99.90;;;;;;4826222;29;20485;-95
2021/07/26 13:31:59;;;;;;;4.10;3.70;;;26.40;99.90;;;;;;4827822;29;20026;-96
2021/07/26 13:34:25;;;;;;;4.40;4.00;;;26.50;99.90;;;;;;4813187;29;20070;-96
2021/07/26 13:36:51;;;;;;;4.07;3.78;;;26.40;99.90;;;;;;4831908;29;20030;-94
2021/07/26 13:39:19;;;;;;;4.13;3.50;;;26.40;99.90;;;;;;4829703;29;20499;-95
2021/07/26 13:41:48;;;;;;;3.53;3.22;;;26.40;99.90;;;;;;4849972;29;20030;-96
2021/07/26 13:44:14;;;;;;;3.50;3.20;;;26.40;99.90;;;;;;4815457;29;20106;-96
2021/07/26 13:46:48;;;;;;;3.42;3.08;;;26.40;99.90;;;;;;4832246;29;20030;-96
2021/07/26 13:49:21;;;;;;;3.30;3.00;;;26.40;99.90;;;;;;4820089;29;20042;-95
2021/07/26 13:51:52;;;;;;;3.40;3.10;;;26.40;99.90;;;;;;4815248;29;20396;-96
2021/07/26 13:54:21;;;;;;;3.35;3.05;;;26.40;99.90;;;;;;4817044;29;20034;-96
2021/07/26 13:56:49;;;;;;;3.55;3.25;;;26.40;99.90;;;;;;4854456;29;20057;-95